createdAt,value
2023-07-31T00:01:38.189Z,16.61
2023-07-31T00:04:04.896Z,16.56
2023-07-31T00:06:31.607Z,16.58
2023-07-31T00:08:58.273Z,16.56
2023-07-31T00:11:24.928Z,16.58
2023-07-31T00:13:51.598Z,16.57
2023-07-31T00:16:18.315Z,16.58
2023-07-31T00:18:44.997Z,16.59
2023-07-31T00:21:11.585Z,16.68
2023-07-31T00:23:38.298Z,16.69
2023-07-31T00:26:04.905Z,16.72
2023-07-31T00:28:31.617Z,16.68
2023-07-31T00:30:58.396Z,16.70
2023-07-31T00:33:26.537Z,16.69
2023-07-31T00:35:53.287Z,16.74
2023-07-31T00:38:20.047Z,16.76
2023-07-31T00:40:46.693Z,16.78
2023-07-31T00:43:13.355Z,16.77
2023-07-31T00:45:41.682Z,16.84
2023-07-31T00:48:08.878Z,16.82
2023-07-31T00:50:36.774Z,16.81
2023-07-31T00:53:03.659Z,16.87
2023-07-31T00:55:30.928Z,16.79
2023-07-31T00:57:57.889Z,16.78
2023-07-31T01:00:24.554Z,16.78
2023-07-31T01:02:52.669Z,16.76
2023-07-31T01:05:34.468Z,16.73
2023-07-31T01:08:13.693Z,16.80
2023-07-31T01:10:49.816Z,16.73
2023-07-31T01:13:19.041Z,16.65
2023-07-31T01:15:45.703Z,16.61
2023-07-31T01:18:12.344Z,16.60
2023-07-31T01:20:43.356Z,16.54
2023-07-31T01:23:12.901Z,16.56
2023-07-31T01:26:14.034Z,16.58
2023-07-31T01:29:24.436Z,16.55
2023-07-31T01:31:56.466Z,16.52
2023-07-31T01:34:23.507Z,16.53
2023-07-31T01:36:50.542Z,16.53
2023-07-31T01:39:17.251Z,16.50
2023-07-31T01:41:44.066Z,16.54
2023-07-31T01:44:10.761Z,16.50
2023-07-31T01:46:37.972Z,16.44
2023-07-31T01:49:06.750Z,16.46
2023-07-31T01:51:36.449Z,16.44
2023-07-31T01:54:03.501Z,16.49
2023-07-31T01:56:30.386Z,16.54
2023-07-31T01:58:56.958Z,16.56
2023-07-31T02:01:24.577Z,16.62
2023-07-31T02:03:51.856Z,16.66
2023-07-31T02:06:18.552Z,16.73
2023-07-31T02:08:45.199Z,16.77
2023-07-31T02:11:13.397Z,16.85
2023-07-31T02:13:40.005Z,16.88
2023-07-31T02:16:06.704Z,16.92
2023-07-31T02:18:33.703Z,16.99
2023-07-31T02:21:00.325Z,17.04
2023-07-31T02:23:27.044Z,17.08
2023-07-31T02:25:53.659Z,17.10
2023-07-31T02:28:20.647Z,17.14
2023-07-31T02:30:47.523Z,17.14
2023-07-31T02:33:14.889Z,17.17
2023-07-31T02:35:41.563Z,17.17
2023-07-31T02:38:59.776Z,17.14
2023-07-31T02:41:26.952Z,17.14
2023-07-31T02:43:54.117Z,17.11
2023-07-31T02:46:21.204Z,17.03
2023-07-31T02:48:47.812Z,17.00
2023-07-31T02:51:14.406Z,16.92
2023-07-31T02:53:41.073Z,16.87
2023-07-31T02:56:07.771Z,16.80
2023-07-31T02:58:34.432Z,16.72
2023-07-31T03:01:01.118Z,16.68
2023-07-31T03:03:27.954Z,16.68
2023-07-31T03:05:54.769Z,16.64
2023-07-31T03:08:22.099Z,16.69
2023-07-31T03:10:49.901Z,16.69
2023-07-31T03:13:16.493Z,16.76
2023-07-31T03:15:44.612Z,16.82
2023-07-31T03:18:11.663Z,16.86
2023-07-31T03:20:38.424Z,16.84
2023-07-31T03:23:05.076Z,16.87
2023-07-31T03:25:31.728Z,16.91
2023-07-31T03:27:58.427Z,16.97
2023-07-31T03:30:25.084Z,17.02
2023-07-31T03:32:52.450Z,17.03
2023-07-31T03:35:19.186Z,17.01
2023-07-31T03:37:45.788Z,17.03
2023-07-31T03:40:12.607Z,17.03
2023-07-31T03:42:39.222Z,17.02
2023-07-31T03:45:06.717Z,16.99
2023-07-31T03:47:33.393Z,16.96
2023-07-31T03:50:00.048Z,16.89
2023-07-31T03:52:26.680Z,16.83
2023-07-31T03:54:53.315Z,16.80
2023-07-31T03:57:19.939Z,16.72
2023-07-31T03:59:46.562Z,16.71
2023-07-31T04:02:15.347Z,16.68
2023-07-31T04:04:42.013Z,16.62
2023-07-31T04:07:08.696Z,16.58
2023-07-31T04:09:35.281Z,16.60
2023-07-31T04:12:01.860Z,16.55
2023-07-31T04:14:28.503Z,16.45
2023-07-31T04:16:55.133Z,16.30
2023-07-31T04:19:21.784Z,16.14
2023-07-31T04:21:48.384Z,15.97
2023-07-31T04:24:15.329Z,15.88
2023-07-31T04:26:42.131Z,15.81
2023-07-31T04:29:09.033Z,15.73
2023-07-31T04:31:38.711Z,15.65
2023-07-31T04:34:06.376Z,15.61
2023-07-31T04:36:34.979Z,15.56
2023-07-31T04:39:02.442Z,15.55
2023-07-31T04:41:29.202Z,15.58
2023-07-31T04:43:55.907Z,15.64
2023-07-31T04:46:22.646Z,15.65
2023-07-31T04:48:49.262Z,15.64
2023-07-31T04:51:15.924Z,15.64
2023-07-31T04:53:42.496Z,15.63
2023-07-31T04:56:09.210Z,15.62
2023-07-31T04:58:35.947Z,15.62
2023-07-31T05:01:02.590Z,15.62
2023-07-31T05:03:29.319Z,15.67
2023-07-31T05:05:55.994Z,15.72
2023-07-31T05:08:22.637Z,15.79
2023-07-31T05:10:49.888Z,15.85
2023-07-31T05:13:16.497Z,15.92
2023-07-31T05:15:43.243Z,15.93
2023-07-31T05:18:10.091Z,15.95
2023-07-31T05:20:36.806Z,16.02
2023-07-31T05:23:03.628Z,16.04
2023-07-31T05:25:30.265Z,16.07
2023-07-31T05:27:56.967Z,16.10
2023-07-31T05:30:23.585Z,16.20
2023-07-31T05:32:50.292Z,16.29
2023-07-31T05:35:17.197Z,16.35
2023-07-31T05:37:43.831Z,16.47
2023-07-31T05:40:10.827Z,16.52
2023-07-31T05:42:39.529Z,16.54
2023-07-31T05:45:08.032Z,16.57
2023-07-31T05:47:34.927Z,16.75
2023-07-31T05:50:01.647Z,16.80
2023-07-31T05:52:29.991Z,16.93
2023-07-31T05:54:56.683Z,16.98
2023-07-31T05:57:23.434Z,16.96
2023-07-31T05:59:50.178Z,16.94
2023-07-31T06:02:16.936Z,16.94
2023-07-31T06:04:43.629Z,16.93
2023-07-31T06:07:10.329Z,16.95
2023-07-31T06:09:36.952Z,16.98
2023-07-31T06:12:03.909Z,17.00
2023-07-31T06:14:30.498Z,17.03
2023-07-31T06:16:57.139Z,17.09
2023-07-31T06:19:23.820Z,17.16
2023-07-31T06:21:50.443Z,17.25
2023-07-31T06:24:20.184Z,17.35
2023-07-31T06:26:47.017Z,17.50
2023-07-31T06:29:13.601Z,17.60
2023-07-31T06:31:42.539Z,17.68
2023-07-31T06:34:09.294Z,17.72
2023-07-31T06:36:36.077Z,17.77
2023-07-31T06:39:03.070Z,17.80
2023-07-31T06:41:29.693Z,17.84
2023-07-31T06:43:56.312Z,17.86
2023-07-31T06:46:22.979Z,17.76
2023-07-31T06:48:49.608Z,17.77
2023-07-31T06:51:16.344Z,17.78
2023-07-31T06:53:46.192Z,17.84
2023-07-31T06:56:12.943Z,17.92
2023-07-31T06:58:40.098Z,17.98
2023-07-31T07:01:06.817Z,18.07
2023-07-31T07:03:33.784Z,18.18
2023-07-31T07:06:00.494Z,18.26
2023-07-31T07:08:27.719Z,18.41
2023-07-31T07:10:55.006Z,18.49
2023-07-31T07:13:22.692Z,18.63
2023-07-31T07:15:50.660Z,18.79
2023-07-31T07:18:17.890Z,18.88
2023-07-31T07:20:50.781Z,18.98
2023-07-31T07:23:17.640Z,18.97
2023-07-31T07:25:45.069Z,19.13
2023-07-31T07:28:11.749Z,19.35
2023-07-31T07:30:38.448Z,19.55
2023-07-31T07:33:05.229Z,19.58
2023-07-31T07:35:34.935Z,19.58
2023-07-31T07:38:03.973Z,19.63
2023-07-31T07:40:33.891Z,19.67
2023-07-31T07:43:01.463Z,19.71
2023-07-31T07:45:28.239Z,19.66
2023-07-31T09:04:48.367Z,20.40
2023-07-31T09:07:19.640Z,20.39
2023-07-31T09:09:47.126Z,20.16
2023-07-31T09:12:24.893Z,20.26
2023-07-31T09:14:51.616Z,20.37
2023-07-31T09:17:33.152Z,20.42
2023-07-31T09:20:14.979Z,20.27
2023-07-31T09:22:42.757Z,20.34
2023-07-31T09:25:17.769Z,20.31
2023-07-31T09:28:05.607Z,20.24
2023-07-31T09:30:46.558Z,20.29
2023-07-31T09:33:14.657Z,20.33
2023-07-31T09:35:44.972Z,20.37
2023-07-31T09:38:13.507Z,20.46
2023-07-31T09:40:42.847Z,20.52
2023-07-31T09:43:19.488Z,20.47
2023-07-31T09:45:47.234Z,20.42
2023-07-31T09:48:19.443Z,20.37
2023-07-31T09:50:48.724Z,20.35
2023-07-31T09:53:18.768Z,20.38
2023-07-31T09:55:45.723Z,20.45
2023-07-31T09:58:14.159Z,20.56
2023-07-31T10:00:45.813Z,20.67
2023-07-31T10:03:12.789Z,20.73
2023-07-31T10:05:43.492Z,20.85
2023-07-31T10:08:14.549Z,20.96
2023-07-31T10:10:45.412Z,20.96
2023-07-31T10:13:13.844Z,20.89
2023-07-31T10:15:42.735Z,20.92
2023-07-31T10:18:09.935Z,21.02
2023-07-31T10:20:37.746Z,20.85
2023-07-31T10:23:05.148Z,21.03
2023-07-31T10:25:33.303Z,21.08
2023-07-31T10:28:00.666Z,21.17
2023-07-31T10:30:30.631Z,21.04
2023-07-31T10:32:58.790Z,21.20
2023-07-31T10:35:25.895Z,21.31
2023-07-31T10:37:53.580Z,21.53
2023-07-31T10:40:25.321Z,21.66
2023-07-31T10:42:54.099Z,21.83
2023-07-31T10:45:48.681Z,21.89
2023-07-31T10:48:18.355Z,22.34
2023-07-31T10:51:11.950Z,22.48
2023-07-31T10:56:13.835Z,22.48
2023-07-31T10:58:40.673Z,22.34
2023-07-31T11:01:07.627Z,22.53
2023-07-31T11:03:44.847Z,22.51
2023-07-31T11:06:12.791Z,22.56
2023-07-31T11:08:48.524Z,22.64
2023-07-31T11:12:24.596Z,22.86
2023-07-31T11:14:56.528Z,22.88
2023-07-31T11:17:26.978Z,22.67
2023-07-31T11:19:53.593Z,22.58
2023-07-31T11:22:20.387Z,22.57
2023-07-31T11:24:51.722Z,22.51
2023-07-31T11:27:19.490Z,22.06
2023-07-31T11:29:46.402Z,22.08
2023-07-31T11:32:18.863Z,22.08
2023-07-31T11:34:53.486Z,22.20
2023-07-31T11:37:20.129Z,22.29
2023-07-31T11:40:03.468Z,22.81
2023-07-31T11:42:30.691Z,22.96
2023-07-31T11:44:59.355Z,23.54
2023-07-31T11:47:27.090Z,24.05
2023-07-31T11:49:54.632Z,24.34
2023-07-31T11:52:21.205Z,24.45
2023-07-31T11:54:52.626Z,24.79
2023-07-31T11:57:21.447Z,24.91
2023-07-31T11:59:48.475Z,25.18
2023-07-31T12:02:15.285Z,25.18
2023-07-31T12:04:42.583Z,25.27
2023-07-31T12:07:09.451Z,25.51
2023-07-31T12:09:36.278Z,25.67
2023-07-31T12:12:04.238Z,25.69
2023-07-31T12:14:31.183Z,25.13
2023-07-31T12:17:06.111Z,25.51
2023-07-31T12:19:33.049Z,25.51
2023-07-31T12:22:03.329Z,25.88
2023-07-31T12:24:30.241Z,25.80
2023-07-31T12:26:58.839Z,25.70
2023-07-31T12:29:35.547Z,25.51
2023-07-31T12:32:02.239Z,25.66
2023-07-31T12:34:28.911Z,25.43
2023-07-31T12:36:55.495Z,25.81
2023-07-31T12:39:22.129Z,26.33
2023-07-31T12:41:48.716Z,26.15
2023-07-31T12:44:15.282Z,26.37
2023-07-31T12:46:43.290Z,26.70
2023-07-31T12:49:10.383Z,26.12
2023-07-31T12:51:37.028Z,25.91
2023-07-31T12:54:07.156Z,25.95
2023-07-31T12:56:33.831Z,25.89
2023-07-31T12:59:00.498Z,25.60
2023-07-31T13:01:30.578Z,25.62
2023-07-31T13:04:03.437Z,25.59
2023-07-31T13:06:30.201Z,25.65
2023-07-31T13:08:56.792Z,25.91
2023-07-31T13:11:23.665Z,25.65
2023-07-31T13:13:50.245Z,25.46
2023-07-31T13:16:16.999Z,25.30
2023-07-31T13:18:55.837Z,24.88
2023-07-31T13:21:25.240Z,24.91
2023-07-31T13:23:51.851Z,24.91
2023-07-31T13:26:18.526Z,24.90
2023-07-31T13:28:45.116Z,24.82
2023-07-31T13:31:12.761Z,24.72
2023-07-31T13:33:40.997Z,24.74
2023-07-31T13:36:11.276Z,24.81
2023-07-31T13:38:38.171Z,25.11
2023-07-31T13:41:06.583Z,25.22
2023-07-31T13:43:33.225Z,25.54
2023-07-31T13:46:07.497Z,25.49
2023-07-31T13:48:37.426Z,25.89
2023-07-31T13:51:04.471Z,26.16
2023-07-31T13:53:32.094Z,26.16
2023-07-31T13:55:58.943Z,26.15
2023-07-31T13:58:29.467Z,26.01
2023-07-31T14:00:57.282Z,26.35
2023-07-31T14:03:24.393Z,26.56
2023-07-31T14:05:57.872Z,26.40
2023-07-31T14:08:24.768Z,27.02
2023-07-31T14:10:51.613Z,26.91
2023-07-31T14:13:18.723Z,26.88
2023-07-31T14:15:46.485Z,26.33
2023-07-31T14:18:16.620Z,26.27
2023-07-31T14:20:43.430Z,26.04
2023-07-31T14:23:12.538Z,25.97
2023-07-31T14:25:39.349Z,25.91
2023-07-31T14:28:06.173Z,25.88
2023-07-31T14:30:33.270Z,26.11
2023-07-31T14:33:01.877Z,25.91
2023-07-31T14:35:28.591Z,26.26
2023-07-31T14:37:59.276Z,25.73
2023-07-31T14:40:26.054Z,25.55
2023-07-31T14:42:53.076Z,25.66
2023-07-31T14:45:19.800Z,25.44
2023-07-31T14:47:46.551Z,25.65
2023-07-31T14:50:13.380Z,25.61
2023-07-31T14:52:40.381Z,25.69
2023-07-31T14:55:07.604Z,26.02
2023-07-31T14:57:34.680Z,26.08
2023-07-31T15:00:01.568Z,25.87
2023-07-31T15:02:28.934Z,25.76
2023-07-31T15:04:55.655Z,25.87
2023-07-31T15:07:25.277Z,25.84
2023-07-31T15:09:52.005Z,25.37
2023-07-31T15:12:18.853Z,25.01
2023-07-31T15:14:45.582Z,24.75
2023-07-31T15:17:12.642Z,24.46
2023-07-31T15:19:42.456Z,24.29
2023-07-31T15:22:15.640Z,24.35
2023-07-31T15:24:42.401Z,24.37
2023-07-31T15:27:10.090Z,24.68
2023-07-31T15:29:38.191Z,24.51
2023-07-31T15:32:06.905Z,24.35
2023-07-31T15:34:34.116Z,23.93
2023-07-31T15:37:00.788Z,23.71
2023-07-31T15:39:28.506Z,23.53
2023-07-31T15:41:55.472Z,23.48
2023-07-31T15:44:22.663Z,23.56
2023-07-31T15:46:49.488Z,23.59
2023-07-31T15:49:16.932Z,23.55
2023-07-31T15:51:43.820Z,23.55
2023-07-31T15:54:11.045Z,23.62
2023-07-31T15:56:41.620Z,23.77
2023-07-31T15:59:12.004Z,23.61
2023-07-31T16:01:42.207Z,23.62
2023-07-31T16:04:12.467Z,23.49
2023-07-31T16:06:42.895Z,23.44
2023-07-31T16:09:13.278Z,23.37
2023-07-31T16:11:43.684Z,23.35
2023-07-31T16:14:10.633Z,23.34
2023-07-31T16:16:37.417Z,23.31
2023-07-31T16:19:05.039Z,23.33
2023-07-31T16:21:32.156Z,23.36
2023-07-31T16:23:59.506Z,23.36
2023-07-31T16:26:26.339Z,23.20
2023-07-31T16:28:52.934Z,23.14
2023-07-31T16:31:19.711Z,23.11
2023-07-31T16:33:49.821Z,23.07
2023-07-31T16:36:19.246Z,22.99
2023-07-31T16:38:46.312Z,23.00
2023-07-31T16:41:19.132Z,23.00
2023-07-31T16:43:46.172Z,23.06
2023-07-31T16:46:16.556Z,23.01
2023-07-31T16:48:43.194Z,22.98
2023-07-31T16:51:11.223Z,22.94
2023-07-31T16:53:39.381Z,22.86
2023-07-31T16:56:06.752Z,22.77
2023-07-31T16:58:37.184Z,22.71
2023-07-31T17:01:04.635Z,22.73
2023-07-31T17:03:32.804Z,22.68
2023-07-31T17:05:59.652Z,22.70
2023-07-31T17:08:29.396Z,22.68
2023-07-31T17:10:56.009Z,22.58
2023-07-31T17:13:22.748Z,22.50
2023-07-31T17:15:49.448Z,22.42
2023-07-31T17:18:16.123Z,22.35
2023-07-31T17:20:42.922Z,22.29
2023-07-31T17:23:09.543Z,22.22
2023-07-31T17:25:39.318Z,22.22
2023-07-31T17:28:05.962Z,22.25
2023-07-31T17:30:32.611Z,22.25
2023-07-31T17:32:59.377Z,22.27
2023-07-31T17:35:26.064Z,22.29
2023-07-31T17:37:52.810Z,22.29
2023-07-31T17:40:19.555Z,22.29
2023-07-31T17:42:46.250Z,22.33
2023-07-31T17:45:12.995Z,22.35
2023-07-31T17:47:39.762Z,22.34
2023-07-31T17:50:06.889Z,22.31
2023-07-31T17:52:35.639Z,22.32
2023-07-31T17:55:03.177Z,22.32
2023-07-31T17:57:29.813Z,22.30
2023-07-31T18:00:05.688Z,22.25
2023-07-31T18:02:36.546Z,22.25
2023-07-31T18:05:04.275Z,22.21
2023-07-31T18:07:31.104Z,22.15
2023-07-31T18:09:57.816Z,22.10
2023-07-31T18:12:24.437Z,22.02
2023-07-31T18:14:51.157Z,21.95
2023-07-31T18:17:17.896Z,21.87
2023-07-31T18:19:44.831Z,21.80
2023-07-31T18:22:12.255Z,21.76
2023-07-31T18:24:39.050Z,21.74
2023-07-31T18:27:09.473Z,21.71
2023-07-31T18:29:41.917Z,21.62
2023-07-31T18:32:09.868Z,21.60
2023-07-31T18:34:36.639Z,21.52
2023-07-31T18:37:05.050Z,21.47
2023-07-31T18:39:32.966Z,21.44
2023-07-31T18:41:59.550Z,21.41
2023-07-31T18:44:26.307Z,21.36
2023-07-31T18:46:53.027Z,21.30
2023-07-31T18:49:19.741Z,21.27
2023-07-31T18:51:48.362Z,21.23
2023-07-31T18:54:15.079Z,21.21
2023-07-31T18:56:42.084Z,21.17
2023-07-31T18:59:09.067Z,21.17
2023-07-31T19:01:35.753Z,21.14
2023-07-31T19:04:04.192Z,21.10
2023-07-31T19:06:31.748Z,21.05
2023-07-31T19:09:00.138Z,20.98
2023-07-31T19:11:32.326Z,20.98
2023-07-31T19:14:00.760Z,20.94
2023-07-31T19:16:27.792Z,20.93
2023-07-31T19:18:54.531Z,20.87
2023-07-31T19:21:21.344Z,20.90
2023-07-31T19:23:48.046Z,20.89
2023-07-31T19:26:15.019Z,20.89
2023-07-31T19:28:41.682Z,20.87
2023-07-31T19:31:08.307Z,20.89
2023-07-31T19:33:36.381Z,20.90
2023-07-31T19:36:03.458Z,20.88
2023-07-31T19:38:30.132Z,20.83
2023-07-31T19:41:01.760Z,20.81
2023-07-31T19:43:28.806Z,20.77
2023-07-31T19:45:55.632Z,20.71
2023-07-31T19:48:23.468Z,20.68
2023-07-31T19:50:50.687Z,20.66
2023-07-31T19:53:17.372Z,20.58
2023-07-31T19:55:44.070Z,20.48
2023-07-31T19:58:10.844Z,20.40
2023-07-31T20:00:37.475Z,20.30
2023-07-31T20:03:04.227Z,20.21
2023-07-31T20:05:30.982Z,20.14
2023-07-31T20:07:57.742Z,20.10
2023-07-31T20:10:25.082Z,20.04
2023-07-31T20:12:52.335Z,20.01
2023-07-31T20:15:24.385Z,19.97
2023-07-31T20:17:51.675Z,19.91
2023-07-31T20:20:18.422Z,19.87
2023-07-31T20:22:45.147Z,19.83
2023-07-31T20:25:11.838Z,19.83
2023-07-31T20:27:38.606Z,19.85
2023-07-31T20:30:08.896Z,19.85
2023-07-31T20:32:35.790Z,19.85
2023-07-31T20:35:02.609Z,19.84
2023-07-31T20:37:33.978Z,19.86
2023-07-31T20:40:00.874Z,19.87
2023-07-31T20:42:28.445Z,19.87
2023-07-31T20:44:55.714Z,19.85
2023-07-31T20:47:23.798Z,19.83
2023-07-31T20:49:50.662Z,19.83
2023-07-31T20:52:17.342Z,19.85
2023-07-31T20:54:44.020Z,19.85
2023-07-31T20:57:10.675Z,19.84
2023-07-31T20:59:38.250Z,19.86
2023-07-31T21:02:05.291Z,19.84
2023-07-31T21:04:31.983Z,20.01
2023-07-31T21:06:58.746Z,20.00
2023-07-31T21:09:25.793Z,20.00
2023-07-31T21:11:52.787Z,19.99
2023-07-31T21:14:19.472Z,19.97
2023-07-31T21:16:46.120Z,19.92
2023-07-31T21:19:15.163Z,19.98
2023-07-31T21:21:42.621Z,19.96
2023-07-31T21:24:09.313Z,19.98
2023-07-31T21:26:39.916Z,20.02
2023-07-31T21:29:06.956Z,20.03
2023-07-31T21:31:38.400Z,20.02
2023-07-31T21:34:05.200Z,19.99
2023-07-31T21:36:34.570Z,19.92
2023-07-31T21:39:07.836Z,19.92
2023-07-31T21:41:38.277Z,19.94
2023-07-31T21:44:05.694Z,19.89
2023-07-31T21:46:33.734Z,19.89
2023-07-31T21:49:15.600Z,19.85
2023-07-31T21:51:48.513Z,19.87
2023-07-31T21:54:19.407Z,19.93
2023-07-31T21:59:46.757Z,19.97
2023-07-31T22:02:14.839Z,20.10
2023-07-31T22:04:45.318Z,20.08
2023-07-31T22:07:13.874Z,20.11
2023-07-31T22:09:42.261Z,20.01
2023-07-31T22:12:14.705Z,20.03
2023-07-31T22:14:42.633Z,20.13
2023-07-31T22:17:09.774Z,20.19
2023-07-31T22:19:36.806Z,20.28
2023-07-31T22:22:10.426Z,20.21
2023-07-31T22:24:40.046Z,20.32
2023-07-31T22:27:10.274Z,20.32
2023-07-31T22:29:37.049Z,20.39
2023-07-31T22:32:03.868Z,20.35
2023-07-31T22:34:30.480Z,20.26
2023-07-31T22:36:57.093Z,20.20
2023-07-31T22:39:23.720Z,20.25
2023-07-31T22:41:50.424Z,20.20
2023-07-31T22:44:17.136Z,20.20
2023-07-31T22:46:44.066Z,20.20
2023-07-31T22:49:10.848Z,20.21
2023-07-31T22:51:37.976Z,20.10
2023-07-31T22:54:04.697Z,19.84
2023-07-31T22:56:31.381Z,19.64
2023-07-31T22:58:58.084Z,19.51
2023-07-31T23:01:28.163Z,19.37
2023-07-31T23:03:54.793Z,19.26
2023-07-31T23:06:21.413Z,19.17
2023-07-31T23:08:47.982Z,19.14
2023-07-31T23:11:14.674Z,19.19
2023-07-31T23:13:41.637Z,19.17
2023-07-31T23:16:08.379Z,19.12
2023-07-31T23:18:35.066Z,19.08
2023-07-31T23:21:01.790Z,19.13
2023-07-31T23:23:28.389Z,19.00
2023-07-31T23:25:55.080Z,18.92
2023-07-31T23:28:21.802Z,18.86
2023-07-31T23:30:48.866Z,18.77
2023-07-31T23:33:15.587Z,18.72
2023-07-31T23:35:42.353Z,18.64
2023-07-31T23:38:09.153Z,18.58
2023-07-31T23:40:39.128Z,18.56
2023-07-31T23:43:05.932Z,18.50
2023-07-31T23:45:33.171Z,18.52
2023-07-31T23:48:01.576Z,18.51
2023-07-31T23:50:28.713Z,18.52
2023-07-31T23:52:56.577Z,18.53
2023-07-31T23:55:24.390Z,18.51
2023-07-31T23:57:51.656Z,18.48
